Terminal Aerodrome Forecast
Issued by NWS

Home | Current Version | Previous Version | Graphics & Text | Print | Product List | Glossary On
Versions: 1 2 3 4 5 6 7 8 9 10 11 12 13 14 15 16 17 18 19 20 21 22 23
684
FTUS43 KBIS 172335
TAFMOT
TAF
KMOT 172335Z 1800/1824 11015G22KT P6SM BKN100
     FM180200 10007KT P6SM OVC080
     FM180800 VRB04KT P6SM VCSH OVC045
     FM181100 VRB03KT P6SM VCSH OVC030
     FM181500 32005KT P6SM OVC020
     FM182100 34008KT P6SM BKN045=

USA.gov is the U.S. government's official web portal to all federal, state and local government web resources and services.